createdAt,value
2023-04-16T00:01:26.681Z,12.10
2023-04-16T00:03:55.682Z,12.10
2023-04-16T00:06:24.497Z,12.00
2023-04-16T00:08:52.884Z,12.00
2023-04-16T00:11:21.281Z,11.90
2023-04-16T00:13:49.684Z,11.90
2023-04-16T00:16:19.572Z,11.90
2023-04-16T00:18:48.040Z,11.90
2023-04-16T00:21:16.434Z,11.90
2023-04-16T00:23:44.886Z,11.90
2023-04-16T00:26:13.276Z,11.90
2023-04-16T00:28:41.680Z,11.90
2023-04-16T00:31:10.226Z,11.90
2023-04-16T00:33:40.028Z,11.90
2023-04-16T00:36:08.759Z,11.90
2023-04-16T00:38:38.238Z,12.00
2023-04-16T00:41:06.574Z,12.00
2023-04-16T00:43:34.951Z,12.00
2023-04-16T00:46:06.223Z,11.90
2023-04-16T00:48:34.699Z,11.90
2023-04-16T00:51:05.790Z,11.80
2023-04-16T00:53:34.373Z,11.90
2023-04-16T00:56:03.667Z,12.00
2023-04-16T00:58:32.174Z,12.00
2023-04-16T01:01:00.764Z,12.00
2023-04-16T01:03:33.122Z,12.10
2023-04-16T01:06:02.184Z,12.10
2023-04-16T01:08:31.957Z,12.00
2023-04-16T01:11:00.449Z,12.00
2023-04-16T01:13:28.839Z,11.90
2023-04-16T01:15:57.391Z,11.90
2023-04-16T01:18:27.175Z,11.90
2023-04-16T01:20:56.935Z,11.90
2023-04-16T01:23:25.272Z,11.80
2023-04-16T01:25:53.701Z,11.80
2023-04-16T01:28:22.118Z,11.80
2023-04-16T01:30:50.606Z,11.80
2023-04-16T01:33:19.550Z,11.90
2023-04-16T01:35:48.101Z,11.80
2023-04-16T01:38:17.862Z,11.70
2023-04-16T01:40:46.274Z,11.80
2023-04-16T01:43:14.716Z,11.80
2023-04-16T01:45:43.693Z,11.80
2023-04-16T01:48:12.082Z,11.80
2023-04-16T01:50:40.577Z,11.90
2023-04-16T01:53:09.733Z,11.90
2023-04-16T01:55:39.493Z,11.80
2023-04-16T01:58:10.664Z,11.80
2023-04-16T02:00:39.096Z,11.70
2023-04-16T02:03:07.805Z,11.50
2023-04-16T02:05:36.417Z,11.40
2023-04-16T02:08:04.808Z,11.30
2023-04-16T02:10:33.222Z,11.30
2023-04-16T02:13:03.046Z,11.30
2023-04-16T02:15:31.412Z,11.40
2023-04-16T02:17:59.851Z,11.40
2023-04-16T02:20:29.109Z,11.40
2023-04-16T02:22:57.486Z,11.30
2023-04-16T02:25:25.923Z,11.40
2023-04-16T02:27:54.397Z,11.40
2023-04-16T02:30:24.476Z,11.40
2023-04-16T02:32:52.946Z,11.40
2023-04-16T02:35:21.411Z,11.30
2023-04-16T02:37:49.810Z,11.30
2023-04-16T02:40:18.298Z,11.30
2023-04-16T02:42:46.788Z,11.40
2023-04-16T02:45:15.446Z,11.30
2023-04-16T02:47:45.255Z,11.30
2023-04-16T02:50:13.691Z,11.40
2023-04-16T02:52:42.188Z,11.40
2023-04-16T02:55:11.393Z,11.40
2023-04-16T02:57:39.784Z,11.30
2023-04-16T03:00:08.956Z,11.30
2023-04-16T03:02:37.478Z,11.40
2023-04-16T03:05:07.765Z,11.40
2023-04-16T03:07:36.369Z,11.40
2023-04-16T03:10:05.014Z,11.50
2023-04-16T03:12:33.421Z,11.50
2023-04-16T03:15:01.838Z,11.60
2023-04-16T03:17:30.284Z,11.60
2023-04-16T03:19:58.832Z,11.50
2023-04-16T03:22:28.561Z,11.50
2023-04-16T03:24:57.006Z,11.50
2023-04-16T03:27:25.447Z,11.50
2023-04-16T03:29:53.912Z,11.50
2023-04-16T03:32:22.303Z,11.60
2023-04-16T03:34:50.895Z,11.70
2023-04-16T03:37:19.340Z,11.70
2023-04-16T03:39:49.202Z,11.70
2023-04-16T03:42:17.642Z,11.70
2023-04-16T03:44:46.186Z,11.70
2023-04-16T03:47:14.580Z,11.60
2023-04-16T03:49:43.027Z,11.60
2023-04-16T03:52:11.720Z,11.60
2023-04-16T03:54:40.139Z,11.70
2023-04-16T03:57:09.976Z,11.70
2023-04-16T03:59:38.406Z,11.70
2023-04-16T04:02:06.851Z,11.60
2023-04-16T04:04:35.519Z,11.50
2023-04-16T04:07:04.276Z,11.50
2023-04-16T04:09:34.068Z,11.50
2023-04-16T04:12:02.551Z,11.40
2023-04-16T04:14:32.459Z,11.40
2023-04-16T04:17:00.882Z,11.40
2023-04-16T04:19:29.369Z,11.30
2023-04-16T04:21:57.744Z,11.30
2023-04-16T04:24:26.286Z,11.30
2023-04-16T04:26:54.687Z,11.30
2023-04-16T04:29:23.156Z,11.40
2023-04-16T04:31:53.526Z,11.50
2023-04-16T04:34:22.030Z,11.50
2023-04-16T04:36:50.544Z,11.50
2023-04-16T04:39:21.617Z,11.50
2023-04-16T04:41:50.066Z,11.50
2023-04-16T04:44:18.436Z,11.60
2023-04-16T04:46:46.860Z,11.60
2023-04-16T04:49:16.654Z,11.60
2023-04-16T04:51:45.009Z,11.60
2023-04-16T04:54:13.390Z,11.60
2023-04-16T04:56:41.976Z,11.60
2023-04-16T04:59:10.743Z,11.60
2023-04-16T05:01:39.495Z,11.60
2023-04-16T05:04:08.041Z,11.60
2023-04-16T05:06:37.883Z,11.60
2023-04-16T05:09:06.201Z,11.60
2023-04-16T05:11:34.861Z,11.60
2023-04-16T05:14:03.321Z,11.70
2023-04-16T05:16:31.792Z,11.70
2023-04-16T05:19:00.256Z,11.80
2023-04-16T05:21:28.666Z,11.90
2023-04-16T05:23:58.823Z,11.90
2023-04-16T05:26:27.291Z,12.00
2023-04-16T05:28:55.635Z,12.10
2023-04-16T05:31:24.126Z,12.00
2023-04-16T05:33:52.550Z,12.00
2023-04-16T05:36:20.921Z,12.10
2023-04-16T05:38:49.287Z,12.10
2023-04-16T05:41:19.016Z,12.20
2023-04-16T05:43:47.350Z,12.20
2023-04-16T05:46:15.772Z,12.30
2023-04-16T05:48:44.254Z,12.30
2023-04-16T05:51:12.642Z,12.40
2023-04-16T05:53:41.049Z,12.40
2023-04-16T05:56:09.521Z,12.40
2023-04-16T05:58:39.357Z,12.50
2023-04-16T06:01:07.809Z,12.60
2023-04-16T06:03:36.441Z,12.60
2023-04-16T06:06:05.188Z,12.70
2023-04-16T06:08:33.640Z,12.70
2023-04-16T06:11:02.067Z,12.70
2023-04-16T06:13:30.506Z,12.80
2023-04-16T06:16:00.419Z,12.80
2023-04-16T06:18:28.935Z,12.80
2023-04-16T06:20:58.915Z,12.80
2023-04-16T06:23:27.341Z,12.90
2023-04-16T06:25:56.133Z,12.90
2023-04-16T06:28:24.591Z,12.90
2023-04-16T06:30:52.975Z,13.00
2023-04-16T06:33:22.877Z,13.10
2023-04-16T06:35:51.348Z,13.10
2023-04-16T06:38:19.950Z,13.20
2023-04-16T06:40:49.590Z,13.30
2023-04-16T06:43:18.042Z,13.40
2023-04-16T06:45:46.522Z,13.60
2023-04-16T06:48:15.036Z,13.70
2023-04-16T06:50:44.747Z,13.90
2023-04-16T06:53:13.169Z,13.90
2023-04-16T06:55:41.574Z,13.90
2023-04-16T06:58:09.982Z,13.90
2023-04-16T07:00:38.436Z,14.00
2023-04-16T07:03:06.998Z,14.10
2023-04-16T07:05:35.376Z,14.20
2023-04-16T07:08:05.296Z,14.30
2023-04-16T07:10:33.827Z,14.30
2023-04-16T07:13:02.617Z,14.20
2023-04-16T07:15:30.967Z,14.30
2023-04-16T07:17:59.502Z,14.50
2023-04-16T07:20:27.952Z,14.40
2023-04-16T07:22:56.304Z,14.50
2023-04-16T07:25:26.919Z,14.40
2023-04-16T07:27:55.270Z,14.30
2023-04-16T07:30:23.700Z,14.30
2023-04-16T07:32:52.214Z,14.40
2023-04-16T07:35:21.017Z,14.50
2023-04-16T07:37:49.376Z,14.50
2023-04-16T07:40:17.842Z,14.50
2023-04-16T07:42:47.635Z,14.70
2023-04-16T07:45:16.032Z,14.70
2023-04-16T07:47:45.447Z,14.80
2023-04-16T07:50:13.902Z,15.00
2023-04-16T07:52:43.666Z,15.00
2023-04-16T07:55:12.147Z,15.20
2023-04-16T07:57:41.493Z,15.10
2023-04-16T08:00:11.895Z,15.20
2023-04-16T08:02:40.501Z,15.40
2023-04-16T08:05:09.188Z,15.60
2023-04-16T08:07:37.711Z,15.80
2023-04-16T08:10:06.796Z,15.90
2023-04-16T08:12:35.333Z,15.90
2023-04-16T08:15:03.774Z,15.70
2023-04-16T08:17:34.635Z,15.70
2023-04-16T08:20:03.687Z,15.70
2023-04-16T08:22:32.148Z,15.60
2023-04-16T08:25:00.682Z,15.70
2023-04-16T08:27:29.091Z,15.60
2023-04-16T08:29:57.505Z,15.70
2023-04-16T08:32:27.457Z,15.50
2023-04-16T08:34:57.262Z,15.50
2023-04-16T08:37:26.148Z,15.40
2023-04-16T08:39:54.511Z,15.30
2023-04-16T08:42:25.100Z,15.00
2023-04-16T08:44:59.387Z,14.90
2023-04-16T08:47:28.182Z,14.90
2023-04-16T08:49:58.910Z,14.80
2023-04-16T08:52:30.812Z,15.00
2023-04-16T08:55:05.114Z,14.90
2023-04-16T08:57:38.428Z,14.90
2023-04-16T09:00:09.113Z,14.70
2023-04-16T09:02:38.301Z,14.90
2023-04-16T09:05:09.018Z,15.00
2023-04-16T09:07:37.746Z,14.90
2023-04-16T09:10:08.281Z,14.80
2023-04-16T09:12:36.905Z,14.60
2023-04-16T09:15:06.580Z,14.60
2023-04-16T09:17:35.762Z,14.80
2023-04-16T09:20:06.037Z,14.80
2023-04-16T09:22:35.883Z,14.60
2023-04-16T09:25:04.292Z,14.60
2023-04-16T09:27:32.943Z,14.80
2023-04-16T09:30:01.546Z,14.60
2023-04-16T09:32:30.142Z,14.70
2023-04-16T09:34:59.218Z,14.70
2023-04-16T09:37:29.704Z,14.60
2023-04-16T09:40:00.285Z,14.40
2023-04-16T09:42:29.202Z,14.30
2023-04-16T09:45:00.296Z,14.40
2023-04-16T09:47:40.072Z,14.40
2023-04-16T09:50:09.615Z,14.50
2023-04-16T09:52:39.705Z,14.50
2023-04-16T09:55:09.565Z,14.60
2023-04-16T09:57:38.654Z,14.50
2023-04-16T10:00:09.122Z,14.70
2023-04-16T10:02:39.297Z,14.70
2023-04-16T10:05:08.287Z,14.80
2023-04-16T10:07:37.180Z,14.80
2023-04-16T10:10:05.886Z,14.90
2023-04-16T10:12:35.766Z,15.00
2023-04-16T10:15:05.001Z,15.20
2023-04-16T10:17:33.827Z,15.20
2023-04-16T10:20:02.739Z,15.20
2023-04-16T10:22:31.342Z,15.20
2023-04-16T10:25:00.107Z,15.30
2023-04-16T10:27:29.168Z,15.30
2023-04-16T10:29:58.975Z,15.20
2023-04-16T10:32:28.746Z,15.10
2023-04-16T10:34:57.251Z,15.10
2023-04-16T10:37:30.560Z,15.20
2023-04-16T10:39:59.423Z,15.30
2023-04-16T10:42:27.905Z,15.40
2023-04-16T10:44:56.288Z,15.40
2023-04-16T10:47:26.217Z,15.40
2023-04-16T10:49:54.741Z,15.20
2023-04-16T10:52:25.063Z,15.00
2023-04-16T10:54:55.701Z,15.00
2023-04-16T10:57:24.062Z,14.80
2023-04-16T10:59:52.598Z,14.90
2023-04-16T11:02:21.213Z,14.90
2023-04-16T11:04:51.357Z,15.00
2023-04-16T11:07:21.076Z,15.00
2023-04-16T11:09:53.594Z,14.90
2023-04-16T11:12:23.220Z,14.80
2023-04-16T11:14:52.123Z,14.80
2023-04-16T11:17:20.896Z,15.00
2023-04-16T11:19:49.352Z,15.20
2023-04-16T11:22:19.217Z,15.40
2023-04-16T11:24:54.645Z,15.40
2023-04-16T11:27:23.408Z,15.20
2023-04-16T11:29:58.277Z,15.30
2023-04-16T11:32:26.711Z,15.30
2023-04-16T11:34:55.182Z,15.20
2023-04-16T11:37:33.246Z,15.20
2023-04-16T11:40:02.153Z,15.20
2023-04-16T11:42:30.584Z,15.20
2023-04-16T11:45:00.575Z,14.90
2023-04-16T11:47:30.766Z,14.80
2023-04-16T11:49:59.268Z,14.80
2023-04-16T11:52:29.885Z,14.70
2023-04-16T11:54:58.796Z,14.80
2023-04-16T11:57:27.811Z,14.70
2023-04-16T12:00:02.407Z,14.60
2023-04-16T12:02:38.595Z,14.80
2023-04-16T12:05:08.698Z,14.80
2023-04-16T12:07:47.579Z,14.70
2023-04-16T12:10:15.944Z,14.80
2023-04-16T12:12:44.274Z,14.60
2023-04-16T12:15:12.684Z,14.60
2023-04-16T12:17:41.120Z,14.60
2023-04-16T12:20:10.453Z,14.60
2023-04-16T12:22:39.348Z,14.80
2023-04-16T12:25:11.817Z,14.90
2023-04-16T12:27:45.474Z,14.90
2023-04-16T12:30:14.622Z,14.80
2023-04-16T12:32:43.494Z,14.90
2023-04-16T12:35:12.013Z,14.90
2023-04-16T12:37:40.674Z,15.00
2023-04-16T12:40:11.047Z,14.90
2023-04-16T12:42:39.460Z,15.10
2023-04-16T12:45:08.263Z,15.30
2023-04-16T12:47:36.657Z,15.20
2023-04-16T12:50:05.792Z,15.20
2023-04-16T12:52:35.572Z,15.30
2023-04-16T12:55:04.585Z,15.60
2023-04-16T12:57:34.417Z,15.60
2023-04-16T13:00:04.422Z,15.50
2023-04-16T13:02:32.958Z,15.50
2023-04-16T13:05:01.561Z,15.60
2023-04-16T13:07:32.296Z,15.70
2023-04-16T13:10:00.942Z,15.80
2023-04-16T13:12:29.436Z,15.70
2023-04-16T13:14:59.263Z,15.60
2023-04-16T13:17:27.682Z,15.50
2023-04-16T13:19:56.066Z,15.50
2023-04-16T13:22:24.543Z,15.40
2023-04-16T13:24:52.969Z,15.40
2023-04-16T13:27:21.384Z,15.20
2023-04-16T13:29:49.863Z,15.20
2023-04-16T13:32:19.876Z,15.30
2023-04-16T13:34:48.355Z,15.40
2023-04-16T13:37:17.060Z,15.40
2023-04-16T13:39:45.646Z,15.40
2023-04-16T13:42:14.109Z,15.40
2023-04-16T13:44:42.766Z,15.60
2023-04-16T13:47:11.335Z,15.70
2023-04-16T13:49:41.195Z,15.70
2023-04-16T13:52:09.575Z,15.70
2023-04-16T13:54:38.094Z,15.90
2023-04-16T13:57:06.632Z,15.80
2023-04-16T13:59:35.102Z,15.60
2023-04-16T14:02:03.730Z,15.60
2023-04-16T14:04:32.406Z,15.70
2023-04-16T14:07:02.270Z,15.70
2023-04-16T14:09:30.868Z,15.60
2023-04-16T14:11:59.252Z,15.70
2023-04-16T14:14:27.730Z,15.80
2023-04-16T14:16:56.292Z,15.70
2023-04-16T14:19:24.674Z,15.70
2023-04-16T14:21:53.049Z,15.80
2023-04-16T14:24:22.885Z,15.90
2023-04-16T14:26:51.351Z,15.90
2023-04-16T14:29:19.784Z,16.00
2023-04-16T14:31:48.279Z,15.90
2023-04-16T14:34:16.744Z,15.60
2023-04-16T14:36:45.470Z,15.70
2023-04-16T14:39:13.920Z,15.50
2023-04-16T14:41:43.711Z,15.40
2023-04-16T14:44:12.144Z,15.30
2023-04-16T14:46:41.068Z,15.20
2023-04-16T14:49:12.286Z,15.10
2023-04-16T14:51:41.176Z,15.10
2023-04-16T14:54:09.817Z,15.10
2023-04-16T14:56:38.242Z,15.10
2023-04-16T14:59:08.202Z,15.10
2023-04-16T15:01:39.704Z,15.10
2023-04-16T15:04:08.974Z,15.20
2023-04-16T15:06:38.176Z,15.20
2023-04-16T15:09:07.544Z,15.30
2023-04-16T15:11:36.037Z,15.30
2023-04-16T15:14:04.410Z,15.30
2023-04-16T15:16:34.336Z,15.40
2023-04-16T15:19:05.024Z,15.30
2023-04-16T15:21:33.681Z,15.30
2023-04-16T15:24:02.075Z,15.20
2023-04-16T15:26:30.572Z,15.10
2023-04-16T15:28:59.062Z,15.00
2023-04-16T15:31:27.559Z,14.90
2023-04-16T15:33:57.445Z,15.00
2023-04-16T15:36:26.663Z,15.00
2023-04-16T15:38:55.200Z,15.20
2023-04-16T15:41:23.713Z,15.30
2023-04-16T15:43:52.174Z,15.40
2023-04-16T15:46:20.586Z,15.40
2023-04-16T15:48:48.975Z,15.30
2023-04-16T15:51:18.729Z,15.30
2023-04-16T15:53:47.739Z,15.30
2023-04-16T15:56:16.209Z,15.20
2023-04-16T15:58:44.610Z,15.20
2023-04-16T16:01:13.481Z,15.00
2023-04-16T16:03:42.113Z,14.50
2023-04-16T16:06:10.860Z,14.40
2023-04-16T16:08:41.057Z,14.30
2023-04-16T16:11:09.465Z,14.30
2023-04-16T16:13:38.451Z,14.20
2023-04-16T16:16:07.030Z,13.80
2023-04-16T16:18:36.495Z,13.50
2023-04-16T16:21:05.127Z,13.30
2023-04-16T16:23:33.525Z,13.20
2023-04-16T16:26:05.802Z,13.20
2023-04-16T16:28:37.626Z,13.60
2023-04-16T16:31:07.140Z,13.80
2023-04-16T16:33:35.629Z,13.70
2023-04-16T16:36:06.229Z,13.70
2023-04-16T16:38:34.829Z,13.60
2023-04-16T16:41:04.613Z,13.70
2023-04-16T16:43:32.978Z,13.80
2023-04-16T16:46:01.491Z,13.70
2023-04-16T16:48:30.316Z,13.70
2023-04-16T16:50:58.763Z,13.70
2023-04-16T16:53:27.426Z,13.60
2023-04-16T16:55:56.062Z,13.60
2023-04-16T16:58:27.656Z,13.50
2023-04-16T17:00:56.143Z,13.30
2023-04-16T17:03:24.586Z,13.20
2023-04-16T17:05:53.116Z,13.10
2023-04-16T17:08:21.495Z,13.00
2023-04-16T17:10:49.945Z,13.00
2023-04-16T17:13:19.905Z,13.00
2023-04-16T17:15:49.650Z,13.00
2023-04-16T17:18:20.701Z,13.20
2023-04-16T17:20:49.100Z,13.20
2023-04-16T17:23:17.498Z,13.20
2023-04-16T17:25:46.169Z,13.20
2023-04-16T17:28:14.647Z,13.20
2023-04-16T17:30:43.378Z,13.20
2023-04-16T17:33:13.232Z,13.20
2023-04-16T17:35:41.740Z,13.20
2023-04-16T17:38:10.374Z,13.30
2023-04-16T17:40:38.872Z,13.20
2023-04-16T17:43:07.243Z,13.10
2023-04-16T17:45:35.736Z,13.00
2023-04-16T17:48:04.242Z,12.90
2023-04-16T17:50:34.328Z,12.80
2023-04-16T17:53:03.761Z,12.90
2023-04-16T17:55:32.459Z,12.80
2023-04-16T17:58:02.655Z,12.80
2023-04-16T18:00:31.084Z,12.70
2023-04-16T18:03:00.113Z,12.70
2023-04-16T18:05:28.671Z,12.80
2023-04-16T18:07:58.412Z,12.70
2023-04-16T18:10:26.763Z,12.60
2023-04-16T18:12:55.144Z,12.50
2023-04-16T18:15:23.555Z,12.40
2023-04-16T18:17:51.953Z,12.40
2023-04-16T18:20:20.625Z,12.50
2023-04-16T18:22:49.025Z,12.50
2023-04-16T18:25:21.026Z,12.50
2023-04-16T18:27:58.851Z,12.50
2023-04-16T18:30:28.258Z,12.50
2023-04-16T18:33:25.447Z,12.40
2023-04-16T18:35:45.121Z,12.40
2023-04-16T18:38:13.981Z,12.40
2023-04-16T18:40:43.755Z,12.60
2023-04-16T18:43:12.162Z,12.70
2023-04-16T18:45:40.628Z,12.80
2023-04-16T18:48:09.081Z,13.00
2023-04-16T18:50:37.547Z,13.00
2023-04-16T18:53:05.919Z,13.00
2023-04-16T18:55:34.269Z,13.00
2023-04-16T18:58:04.009Z,13.10
2023-04-16T19:00:32.449Z,13.10
2023-04-16T19:03:00.968Z,13.00
2023-04-16T19:05:29.396Z,13.00
2023-04-16T19:07:57.738Z,13.00
2023-04-16T19:10:26.252Z,13.00
2023-04-16T19:12:56.186Z,13.00
2023-04-16T19:15:26.585Z,12.90
2023-04-16T19:17:55.904Z,12.70
2023-04-16T19:20:24.417Z,12.60
2023-04-16T19:22:52.848Z,12.40
2023-04-16T19:25:21.302Z,12.50
2023-04-16T19:27:49.712Z,12.60
2023-04-16T19:30:18.318Z,12.50
2023-04-16T19:32:48.129Z,12.50
2023-04-16T19:35:16.684Z,12.50
2023-04-16T19:37:44.968Z,12.50
2023-04-16T19:40:13.457Z,12.50
2023-04-16T19:42:41.864Z,12.40
2023-04-16T19:45:10.447Z,12.50
2023-04-16T19:47:39.011Z,12.50
2023-04-16T19:50:09.675Z,12.50
2023-04-16T19:52:39.192Z,12.60
2023-04-16T19:55:08.396Z,12.50
2023-04-16T19:57:36.747Z,12.70
2023-04-16T20:00:08.942Z,12.70
2023-04-16T20:02:37.480Z,12.80
2023-04-16T20:05:06.139Z,12.90
2023-04-16T20:07:35.933Z,12.90
2023-04-16T20:10:04.430Z,13.00
2023-04-16T20:12:32.822Z,13.00
2023-04-16T20:15:01.287Z,13.20
2023-04-16T20:17:29.787Z,13.20
2023-04-16T20:20:00.932Z,13.30
2023-04-16T20:22:29.400Z,13.30
2023-04-16T20:24:59.488Z,13.30
2023-04-16T20:27:28.855Z,13.30
2023-04-16T20:29:57.250Z,13.30
2023-04-16T20:32:27.756Z,13.40
2023-04-16T20:34:56.445Z,13.30
2023-04-16T20:37:24.850Z,13.30
2023-04-16T20:39:54.306Z,13.30
2023-04-16T20:42:26.371Z,13.40
2023-04-16T20:44:56.707Z,13.40
2023-04-16T20:47:25.218Z,13.50
2023-04-16T20:49:55.025Z,13.40
2023-04-16T20:52:23.339Z,13.40
2023-04-16T20:54:52.436Z,13.50
2023-04-16T20:57:21.018Z,13.50
2023-04-16T20:59:51.013Z,13.50
2023-04-16T21:02:20.242Z,13.60
2023-04-16T21:04:48.985Z,13.60
2023-04-16T21:07:17.406Z,13.70
2023-04-16T21:09:45.955Z,13.60
2023-04-16T21:12:14.375Z,13.60
2023-04-16T21:14:42.781Z,13.60
2023-04-16T21:17:12.561Z,13.60
2023-04-16T21:19:41.451Z,13.70
2023-04-16T21:22:09.860Z,13.80
2023-04-16T21:24:38.235Z,13.70
2023-04-16T21:27:06.689Z,13.70
2023-04-16T21:29:35.134Z,13.80
2023-04-16T21:32:03.491Z,13.80
2023-04-16T21:34:33.301Z,13.80
2023-04-16T21:37:01.666Z,13.80
2023-04-16T21:39:31.073Z,13.80
2023-04-16T21:41:59.490Z,13.90
2023-04-16T21:44:27.879Z,13.90
2023-04-16T21:46:56.366Z,14.00
2023-04-16T21:49:24.885Z,14.00
2023-04-16T21:51:59.163Z,14.00
2023-04-16T21:54:27.638Z,14.00
2023-04-16T21:56:57.078Z,14.10
2023-04-16T21:59:25.522Z,14.10
2023-04-16T22:01:54.039Z,14.00
2023-04-16T22:04:26.242Z,13.90
2023-04-16T22:06:57.182Z,13.80
2023-04-16T22:09:25.898Z,13.80
2023-04-16T22:11:57.784Z,13.80
2023-04-16T22:14:26.200Z,14.00
2023-04-16T22:16:55.132Z,14.00
2023-04-16T22:19:23.675Z,13.90
2023-04-16T22:21:52.099Z,14.00
2023-04-16T22:24:21.970Z,14.00
2023-04-16T22:26:50.390Z,14.10
2023-04-16T22:29:18.874Z,14.10
2023-04-16T22:31:47.797Z,14.10
2023-04-16T22:34:16.224Z,14.00
2023-04-16T22:36:44.651Z,14.00
2023-04-16T22:39:13.263Z,14.00
2023-04-16T22:41:43.374Z,14.10
2023-04-16T22:44:12.006Z,14.10
2023-04-16T22:46:40.911Z,14.10
2023-04-16T22:49:09.350Z,14.00
2023-04-16T22:51:38.247Z,13.90
2023-04-16T22:54:07.278Z,13.70
2023-04-16T22:56:35.734Z,13.20
2023-04-16T22:59:05.547Z,12.80
2023-04-16T23:01:34.104Z,12.60
2023-04-16T23:04:02.799Z,12.50
2023-04-16T23:06:31.667Z,12.40
2023-04-16T23:09:00.156Z,12.40
2023-04-16T23:11:28.573Z,12.50
2023-04-16T23:13:56.998Z,12.40
2023-04-16T23:16:27.274Z,12.40
2023-04-16T23:18:55.805Z,12.40
2023-04-16T23:21:24.201Z,12.30
2023-04-16T23:23:52.766Z,12.30
2023-04-16T23:26:21.207Z,12.40
2023-04-16T23:28:49.599Z,12.40
2023-04-16T23:31:18.022Z,12.30
2023-04-16T23:33:47.874Z,12.30
2023-04-16T23:36:16.501Z,12.40
2023-04-16T23:38:44.889Z,12.10
2023-04-16T23:41:13.288Z,12.20
2023-04-16T23:43:41.719Z,12.20
2023-04-16T23:46:10.165Z,12.20
2023-04-16T23:48:38.619Z,12.20
2023-04-16T23:51:08.453Z,12.20
2023-04-16T23:53:37.518Z,12.30
2023-04-16T23:56:06.157Z,12.30
2023-04-16T23:58:34.601Z,12.30
